sensor_id;sensor_type;location;lat;lon;timestamp;P1;durP1;ratioP1;P2;durP2;ratioP2
61897;SDS011;47850;50.274;18.908;2022-12-18T00:00:42;63.40;;;19.20;;
61897;SDS011;47850;50.274;18.908;2022-12-18T00:03:09;44.50;;;17.20;;
61897;SDS011;47850;50.274;18.908;2022-12-18T00:05:35;45.60;;;16.10;;
61897;SDS011;47850;50.274;18.908;2022-12-18T00:08:01;53.30;;;17.70;;
61897;SDS011;47850;50.274;18.908;2022-12-18T00:10:28;50.10;;;17.40;;
61897;SDS011;47850;50.274;18.908;2022-12-18T00:12:54;44.20;;;16.70;;
61897;SDS011;47850;50.274;18.908;2022-12-18T00:15:19;57.80;;;18.90;;
61897;SDS011;47850;50.274;18.908;2022-12-18T00:17:45;52.80;;;17.70;;
61897;SDS011;47850;50.274;18.908;2022-12-18T00:20:11;53.50;;;18.50;;
61897;SDS011;47850;50.274;18.908;2022-12-18T00:22:37;58.30;;;19.80;;
61897;SDS011;47850;50.274;18.908;2022-12-18T00:25:02;51.70;;;17.60;;
61897;SDS011;47850;50.274;18.908;2022-12-18T00:27:28;44.90;;;15.80;;
61897;SDS011;47850;50.274;18.908;2022-12-18T00:29:53;51.80;;;16.70;;
61897;SDS011;47850;50.274;18.908;2022-12-18T00:32:19;33.80;;;11.50;;
61897;SDS011;47850;50.274;18.908;2022-12-18T00:34:44;40.40;;;15.70;;
61897;SDS011;47850;50.274;18.908;2022-12-18T00:37:10;49.40;;;16.80;;
61897;SDS011;47850;50.274;18.908;2022-12-18T00:39:35;32.70;;;12.20;;
61897;SDS011;47850;50.274;18.908;2022-12-18T00:42:00;40.20;;;13.30;;
61897;SDS011;47850;50.274;18.908;2022-12-18T00:45:05;37.50;;;13.80;;
61897;SDS011;47850;50.274;18.908;2022-12-18T00:47:31;22.30;;;9.00;;
61897;SDS011;47850;50.274;18.908;2022-12-18T00:49:56;43.70;;;14.60;;
61897;SDS011;47850;50.274;18.908;2022-12-18T00:52:22;37.50;;;14.60;;
61897;SDS011;47850;50.274;18.908;2022-12-18T00:54:47;31.50;;;10.10;;
61897;SDS011;47850;50.274;18.908;2022-12-18T00:57:12;35.10;;;12.10;;
61897;SDS011;47850;50.274;18.908;2022-12-18T00:59:38;38.00;;;13.90;;
61897;SDS011;47850;50.274;18.908;2022-12-18T01:02:03;30.30;;;10.80;;
61897;SDS011;47850;50.274;18.908;2022-12-18T01:04:30;37.00;;;13.00;;
61897;SDS011;47850;50.274;18.908;2022-12-18T01:06:57;38.60;;;14.20;;
61897;SDS011;47850;50.274;18.908;2022-12-18T01:09:22;38.60;;;13.70;;
61897;SDS011;47850;50.274;18.908;2022-12-18T01:11:48;39.40;;;13.30;;
61897;SDS011;47850;50.274;18.908;2022-12-18T01:14:13;37.80;;;13.60;;
61897;SDS011;47850;50.274;18.908;2022-12-18T01:16:39;35.50;;;13.10;;
61897;SDS011;47850;50.274;18.908;2022-12-18T01:19:04;34.60;;;12.10;;
61897;SDS011;47850;50.274;18.908;2022-12-18T01:21:29;43.80;;;14.70;;
61897;SDS011;47850;50.274;18.908;2022-12-18T01:23:56;43.80;;;15.90;;
61897;SDS011;47850;50.274;18.908;2022-12-18T01:26:22;37.20;;;12.70;;
61897;SDS011;47850;50.274;18.908;2022-12-18T01:28:48;42.30;;;13.80;;
61897;SDS011;47850;50.274;18.908;2022-12-18T01:31:15;46.50;;;15.90;;
61897;SDS011;47850;50.274;18.908;2022-12-18T01:33:47;52.50;;;16.00;;
61897;SDS011;47850;50.274;18.908;2022-12-18T01:36:23;39.50;;;15.70;;
61897;SDS011;47850;50.274;18.908;2022-12-18T01:38:53;37.20;;;12.50;;
61897;SDS011;47850;50.274;18.908;2022-12-18T01:41:23;41.30;;;14.00;;
61897;SDS011;47850;50.274;18.908;2022-12-18T01:43:52;52.40;;;17.80;;
61897;SDS011;47850;50.274;18.908;2022-12-18T01:46:21;39.20;;;13.40;;
61897;SDS011;47850;50.274;18.908;2022-12-18T01:48:49;58.30;;;18.10;;
61897;SDS011;47850;50.274;18.908;2022-12-18T01:51:17;43.10;;;14.30;;
61897;SDS011;47850;50.274;18.908;2022-12-18T01:53:43;51.70;;;16.40;;
61897;SDS011;47850;50.274;18.908;2022-12-18T01:56:20;46.00;;;15.90;;
61897;SDS011;47850;50.274;18.908;2022-12-18T01:58:50;42.50;;;16.10;;
61897;SDS011;47850;50.274;18.908;2022-12-18T02:01:24;49.90;;;17.30;;
61897;SDS011;47850;50.274;18.908;2022-12-18T02:03:51;37.30;;;12.70;;
61897;SDS011;47850;50.274;18.908;2022-12-18T02:17:36;43.10;;;14.50;;
61897;SDS011;47850;50.274;18.908;2022-12-18T02:20:16;39.30;;;13.60;;
61897;SDS011;47850;50.274;18.908;2022-12-18T02:28:29;39.80;;;13.80;;
61897;SDS011;47850;50.274;18.908;2022-12-18T02:30:58;38.60;;;14.30;;
61897;SDS011;47850;50.274;18.908;2022-12-18T02:33:27;48.50;;;16.10;;
61897;SDS011;47850;50.274;18.908;2022-12-18T02:35:55;49.00;;;16.70;;
61897;SDS011;47850;50.274;18.908;2022-12-18T02:38:23;49.10;;;16.60;;
61897;SDS011;47850;50.274;18.908;2022-12-18T02:40:50;48.50;;;17.10;;
61897;SDS011;47850;50.274;18.908;2022-12-18T02:43:18;49.60;;;16.30;;
61897;SDS011;47850;50.274;18.908;2022-12-18T02:45:49;52.10;;;17.10;;
61897;SDS011;47850;50.274;18.908;2022-12-18T02:48:22;50.50;;;16.20;;
61897;SDS011;47850;50.274;18.908;2022-12-18T02:50:52;45.90;;;16.90;;
61897;SDS011;47850;50.274;18.908;2022-12-18T02:53:33;49.60;;;17.30;;
61897;SDS011;47850;50.274;18.908;2022-12-18T02:56:12;38.70;;;12.50;;
61897;SDS011;47850;50.274;18.908;2022-12-18T03:07:19;28.50;;;11.40;;
61897;SDS011;47850;50.274;18.908;2022-12-18T03:09:51;45.50;;;15.50;;
61897;SDS011;47850;50.274;18.908;2022-12-18T03:12:24;52.20;;;17.00;;
61897;SDS011;47850;50.274;18.908;2022-12-18T03:15:03;51.20;;;17.60;;
61897;SDS011;47850;50.274;18.908;2022-12-18T03:17:34;49.70;;;16.00;;
61897;SDS011;47850;50.274;18.908;2022-12-18T03:20:09;47.30;;;16.50;;
61897;SDS011;47850;50.274;18.908;2022-12-18T03:22:40;38.60;;;14.50;;
61897;SDS011;47850;50.274;18.908;2022-12-18T03:25:09;35.40;;;13.60;;
61897;SDS011;47850;50.274;18.908;2022-12-18T03:27:40;49.90;;;17.10;;
61897;SDS011;47850;50.274;18.908;2022-12-18T03:30:12;51.60;;;17.20;;
61897;SDS011;47850;50.274;18.908;2022-12-18T03:32:40;45.20;;;15.20;;
61897;SDS011;47850;50.274;18.908;2022-12-18T03:35:20;43.30;;;15.80;;
61897;SDS011;47850;50.274;18.908;2022-12-18T03:37:48;52.20;;;17.00;;
61897;SDS011;47850;50.274;18.908;2022-12-18T03:40:14;47.20;;;16.50;;
61897;SDS011;47850;50.274;18.908;2022-12-18T03:42:49;46.60;;;13.70;;
61897;SDS011;47850;50.274;18.908;2022-12-18T03:45:35;40.50;;;14.70;;
61897;SDS011;47850;50.274;18.908;2022-12-18T03:48:08;51.50;;;16.80;;
61897;SDS011;47850;50.274;18.908;2022-12-18T03:50:45;55.00;;;17.30;;
61897;SDS011;47850;50.274;18.908;2022-12-18T03:55:51;52.90;;;17.10;;
61897;SDS011;47850;50.274;18.908;2022-12-18T03:58:19;48.70;;;15.90;;
61897;SDS011;47850;50.274;18.908;2022-12-18T04:00:48;48.90;;;16.20;;
61897;SDS011;47850;50.274;18.908;2022-12-18T04:03:17;36.60;;;14.60;;
61897;SDS011;47850;50.274;18.908;2022-12-18T04:05:46;34.00;;;12.60;;
61897;SDS011;47850;50.274;18.908;2022-12-18T04:10:41;43.90;;;12.80;;
61897;SDS011;47850;50.274;18.908;2022-12-18T04:13:06;46.30;;;14.10;;
61897;SDS011;47850;50.274;18.908;2022-12-18T04:15:33;36.20;;;13.10;;
61897;SDS011;47850;50.274;18.908;2022-12-18T04:18:00;31.30;;;12.50;;
61897;SDS011;47850;50.274;18.908;2022-12-18T04:20:26;49.90;;;15.70;;
61897;SDS011;47850;50.274;18.908;2022-12-18T04:22:52;46.80;;;15.90;;
61897;SDS011;47850;50.274;18.908;2022-12-18T04:25:17;42.50;;;15.30;;
61897;SDS011;47850;50.274;18.908;2022-12-18T04:27:43;34.30;;;12.40;;
61897;SDS011;47850;50.274;18.908;2022-12-18T04:30:09;38.50;;;14.00;;
61897;SDS011;47850;50.274;18.908;2022-12-18T04:32:35;48.30;;;16.80;;
61897;SDS011;47850;50.274;18.908;2022-12-18T04:35:01;58.30;;;19.00;;
61897;SDS011;47850;50.274;18.908;2022-12-18T04:37:27;49.90;;;16.70;;
61897;SDS011;47850;50.274;18.908;2022-12-18T04:39:53;48.50;;;16.70;;
61897;SDS011;47850;50.274;18.908;2022-12-18T04:42:18;35.40;;;12.60;;
61897;SDS011;47850;50.274;18.908;2022-12-18T04:44:43;47.50;;;16.10;;
61897;SDS011;47850;50.274;18.908;2022-12-18T04:47:09;50.50;;;17.30;;
61897;SDS011;47850;50.274;18.908;2022-12-18T04:49:35;55.10;;;17.50;;
61897;SDS011;47850;50.274;18.908;2022-12-18T04:52:00;54.10;;;17.80;;
61897;SDS011;47850;50.274;18.908;2022-12-18T04:54:26;53.10;;;17.10;;
61897;SDS011;47850;50.274;18.908;2022-12-18T04:56:51;57.80;;;17.90;;
61897;SDS011;47850;50.274;18.908;2022-12-18T04:59:16;37.10;;;13.70;;
61897;SDS011;47850;50.274;18.908;2022-12-18T05:01:42;54.60;;;17.40;;
61897;SDS011;47850;50.274;18.908;2022-12-18T05:04:07;45.40;;;15.70;;
61897;SDS011;47850;50.274;18.908;2022-12-18T05:06:33;57.20;;;17.90;;
61897;SDS011;47850;50.274;18.908;2022-12-18T05:08:58;48.50;;;16.90;;
61897;SDS011;47850;50.274;18.908;2022-12-18T05:11:24;62.00;;;19.70;;
61897;SDS011;47850;50.274;18.908;2022-12-18T05:13:49;56.10;;;18.10;;
61897;SDS011;47850;50.274;18.908;2022-12-18T05:16:14;34.70;;;10.50;;
61897;SDS011;47850;50.274;18.908;2022-12-18T05:18:40;42.40;;;15.10;;
61897;SDS011;47850;50.274;18.908;2022-12-18T05:21:06;62.50;;;21.60;;
61897;SDS011;47850;50.274;18.908;2022-12-18T05:23:32;34.20;;;10.90;;
61897;SDS011;47850;50.274;18.908;2022-12-18T05:26:02;35.20;;;14.10;;
61897;SDS011;47850;50.274;18.908;2022-12-18T05:28:29;30.90;;;11.30;;
61897;SDS011;47850;50.274;18.908;2022-12-18T05:30:57;48.00;;;16.70;;
61897;SDS011;47850;50.274;18.908;2022-12-18T05:33:26;40.50;;;13.00;;
61897;SDS011;47850;50.274;18.908;2022-12-18T05:35:54;56.80;;;18.40;;
61897;SDS011;47850;50.274;18.908;2022-12-18T05:38:21;41.90;;;14.90;;
61897;SDS011;47850;50.274;18.908;2022-12-18T05:40:49;35.80;;;12.60;;
61897;SDS011;47850;50.274;18.908;2022-12-18T05:43:15;43.90;;;16.50;;
61897;SDS011;47850;50.274;18.908;2022-12-18T05:45:41;58.30;;;19.50;;
61897;SDS011;47850;50.274;18.908;2022-12-18T05:48:07;58.10;;;18.40;;
61897;SDS011;47850;50.274;18.908;2022-12-18T05:50:34;54.00;;;18.10;;
61897;SDS011;47850;50.274;18.908;2022-12-18T05:53:01;42.70;;;14.00;;
61897;SDS011;47850;50.274;18.908;2022-12-18T05:55:28;57.70;;;21.20;;
61897;SDS011;47850;50.274;18.908;2022-12-18T05:57:53;59.70;;;18.40;;
61897;SDS011;47850;50.274;18.908;2022-12-18T06:00:18;66.90;;;21.60;;
61897;SDS011;47850;50.274;18.908;2022-12-18T06:02:47;67.90;;;21.90;;
61897;SDS011;47850;50.274;18.908;2022-12-18T06:05:12;46.20;;;12.20;;
61897;SDS011;47850;50.274;18.908;2022-12-18T06:07:38;51.10;;;16.20;;
61897;SDS011;47850;50.274;18.908;2022-12-18T06:10:04;62.60;;;20.60;;
61897;SDS011;47850;50.274;18.908;2022-12-18T06:12:29;68.20;;;21.30;;
61897;SDS011;47850;50.274;18.908;2022-12-18T06:14:55;38.90;;;13.30;;
61897;SDS011;47850;50.274;18.908;2022-12-18T06:17:21;59.70;;;20.80;;
61897;SDS011;47850;50.274;18.908;2022-12-18T06:19:46;57.90;;;18.90;;
61897;SDS011;47850;50.274;18.908;2022-12-18T06:22:12;66.70;;;20.80;;
61897;SDS011;47850;50.274;18.908;2022-12-18T06:24:37;47.10;;;16.40;;
61897;SDS011;47850;50.274;18.908;2022-12-18T06:27:02;59.40;;;20.10;;
61897;SDS011;47850;50.274;18.908;2022-12-18T06:29:28;50.00;;;17.60;;
61897;SDS011;47850;50.274;18.908;2022-12-18T06:31:53;66.40;;;22.30;;
61897;SDS011;47850;50.274;18.908;2022-12-18T06:34:19;68.20;;;22.40;;
61897;SDS011;47850;50.274;18.908;2022-12-18T06:36:44;59.00;;;21.30;;
61897;SDS011;47850;50.274;18.908;2022-12-18T06:39:10;76.30;;;25.30;;
61897;SDS011;47850;50.274;18.908;2022-12-18T06:41:35;59.30;;;19.80;;
61897;SDS011;47850;50.274;18.908;2022-12-18T06:44:01;87.60;;;26.70;;
61897;SDS011;47850;50.274;18.908;2022-12-18T06:46:26;93.00;;;29.30;;
61897;SDS011;47850;50.274;18.908;2022-12-18T06:48:52;79.90;;;25.60;;
61897;SDS011;47850;50.274;18.908;2022-12-18T06:51:21;82.60;;;25.80;;
61897;SDS011;47850;50.274;18.908;2022-12-18T06:53:48;78.90;;;25.60;;
61897;SDS011;47850;50.274;18.908;2022-12-18T06:56:14;88.40;;;26.70;;
61897;SDS011;47850;50.274;18.908;2022-12-18T06:58:40;92.40;;;28.80;;
61897;SDS011;47850;50.274;18.908;2022-12-18T07:01:08;80.00;;;25.90;;
61897;SDS011;47850;50.274;18.908;2022-12-18T07:03:36;60.60;;;22.50;;
61897;SDS011;47850;50.274;18.908;2022-12-18T07:06:02;93.90;;;27.40;;
61897;SDS011;47850;50.274;18.908;2022-12-18T07:08:28;94.00;;;27.10;;
61897;SDS011;47850;50.274;18.908;2022-12-18T07:10:55;64.20;;;23.30;;
61897;SDS011;47850;50.274;18.908;2022-12-18T07:13:20;81.00;;;28.00;;
61897;SDS011;47850;50.274;18.908;2022-12-18T07:15:46;100.30;;;31.40;;
61897;SDS011;47850;50.274;18.908;2022-12-18T07:18:11;108.20;;;30.90;;
61897;SDS011;47850;50.274;18.908;2022-12-18T07:20:37;93.50;;;27.70;;
61897;SDS011;47850;50.274;18.908;2022-12-18T07:23:03;70.40;;;22.00;;
61897;SDS011;47850;50.274;18.908;2022-12-18T07:25:33;71.50;;;23.70;;
61897;SDS011;47850;50.274;18.908;2022-12-18T07:27:59;87.70;;;28.40;;
61897;SDS011;47850;50.274;18.908;2022-12-18T07:30:25;85.10;;;28.40;;
61897;SDS011;47850;50.274;18.908;2022-12-18T07:32:51;89.60;;;28.00;;
61897;SDS011;47850;50.274;18.908;2022-12-18T07:35:16;85.90;;;26.90;;
61897;SDS011;47850;50.274;18.908;2022-12-18T07:37:41;91.10;;;27.50;;
61897;SDS011;47850;50.274;18.908;2022-12-18T07:40:07;85.30;;;28.80;;
61897;SDS011;47850;50.274;18.908;2022-12-18T07:42:33;27.80;;;10.30;;
61897;SDS011;47850;50.274;18.908;2022-12-18T07:45:00;76.40;;;23.70;;
61897;SDS011;47850;50.274;18.908;2022-12-18T07:47:26;72.40;;;25.20;;
61897;SDS011;47850;50.274;18.908;2022-12-18T07:49:52;68.90;;;23.50;;
61897;SDS011;47850;50.274;18.908;2022-12-18T07:52:18;92.60;;;29.50;;
61897;SDS011;47850;50.274;18.908;2022-12-18T07:54:44;78.80;;;24.80;;
61897;SDS011;47850;50.274;18.908;2022-12-18T07:57:10;61.00;;;20.80;;
61897;SDS011;47850;50.274;18.908;2022-12-18T07:59:36;54.10;;;17.80;;
61897;SDS011;47850;50.274;18.908;2022-12-18T08:02:02;74.90;;;23.90;;
61897;SDS011;47850;50.274;18.908;2022-12-18T08:04:28;68.80;;;22.50;;
61897;SDS011;47850;50.274;18.908;2022-12-18T08:06:53;100.00;;;28.80;;
61897;SDS011;47850;50.274;18.908;2022-12-18T08:09:19;71.70;;;23.40;;
61897;SDS011;47850;50.274;18.908;2022-12-18T08:11:44;83.40;;;28.60;;
61897;SDS011;47850;50.274;18.908;2022-12-18T08:14:10;81.90;;;26.70;;
61897;SDS011;47850;50.274;18.908;2022-12-18T08:16:35;99.00;;;28.40;;
61897;SDS011;47850;50.274;18.908;2022-12-18T08:19:01;100.00;;;30.40;;
61897;SDS011;47850;50.274;18.908;2022-12-18T08:21:28;89.00;;;30.80;;
61897;SDS011;47850;50.274;18.908;2022-12-18T08:23:56;89.30;;;30.90;;
61897;SDS011;47850;50.274;18.908;2022-12-18T08:26:26;44.70;;;15.70;;
61897;SDS011;47850;50.274;18.908;2022-12-18T08:28:54;54.00;;;15.60;;
61897;SDS011;47850;50.274;18.908;2022-12-18T08:31:21;59.40;;;20.10;;
61897;SDS011;47850;50.274;18.908;2022-12-18T08:33:48;79.30;;;27.50;;
61897;SDS011;47850;50.274;18.908;2022-12-18T08:36:15;60.90;;;21.00;;
61897;SDS011;47850;50.274;18.908;2022-12-18T08:38:40;79.00;;;26.20;;
61897;SDS011;47850;50.274;18.908;2022-12-18T08:41:07;46.00;;;16.30;;
61897;SDS011;47850;50.274;18.908;2022-12-18T08:43:34;87.50;;;28.60;;
61897;SDS011;47850;50.274;18.908;2022-12-18T08:46:19;72.50;;;25.20;;
61897;SDS011;47850;50.274;18.908;2022-12-18T08:48:46;70.80;;;26.00;;
61897;SDS011;47850;50.274;18.908;2022-12-18T08:51:12;69.60;;;24.90;;
61897;SDS011;47850;50.274;18.908;2022-12-18T08:53:38;63.20;;;20.40;;
61897;SDS011;47850;50.274;18.908;2022-12-18T08:56:04;80.60;;;27.00;;
61897;SDS011;47850;50.274;18.908;2022-12-18T08:58:30;94.10;;;30.60;;
61897;SDS011;47850;50.274;18.908;2022-12-18T09:03:15;87.40;;;31.30;;
61897;SDS011;47850;50.274;18.908;2022-12-18T09:05:41;70.00;;;25.80;;
61897;SDS011;47850;50.274;18.908;2022-12-18T09:08:07;87.20;;;28.40;;
61897;SDS011;47850;50.274;18.908;2022-12-18T09:10:33;51.10;;;17.50;;
61897;SDS011;47850;50.274;18.908;2022-12-18T09:12:59;58.40;;;19.30;;
61897;SDS011;47850;50.274;18.908;2022-12-18T09:15:25;57.40;;;20.60;;
61897;SDS011;47850;50.274;18.908;2022-12-18T09:17:51;67.90;;;24.40;;
61897;SDS011;47850;50.274;18.908;2022-12-18T09:20:18;28.90;;;12.40;;
61897;SDS011;47850;50.274;18.908;2022-12-18T09:22:45;55.60;;;19.00;;
61897;SDS011;47850;50.274;18.908;2022-12-18T09:25:10;48.30;;;16.30;;
61897;SDS011;47850;50.274;18.908;2022-12-18T09:27:36;42.90;;;15.90;;
61897;SDS011;47850;50.274;18.908;2022-12-18T09:30:01;66.70;;;22.80;;
61897;SDS011;47850;50.274;18.908;2022-12-18T09:32:27;67.90;;;22.20;;
61897;SDS011;47850;50.274;18.908;2022-12-18T09:34:53;50.20;;;18.20;;
61897;SDS011;47850;50.274;18.908;2022-12-18T09:37:18;45.90;;;16.70;;
61897;SDS011;47850;50.274;18.908;2022-12-18T09:39:44;57.10;;;21.20;;
61897;SDS011;47850;50.274;18.908;2022-12-18T09:42:28;60.40;;;19.00;;
61897;SDS011;47850;50.274;18.908;2022-12-18T09:44:55;54.40;;;20.10;;
61897;SDS011;47850;50.274;18.908;2022-12-18T09:52:57;49.80;;;19.10;;
61897;SDS011;47850;50.274;18.908;2022-12-18T10:01:15;38.60;;;14.60;;
61897;SDS011;47850;50.274;18.908;2022-12-18T10:03:47;53.90;;;18.10;;
61897;SDS011;47850;50.274;18.908;2022-12-18T10:06:15;44.20;;;16.10;;
61897;SDS011;47850;50.274;18.908;2022-12-18T10:14:23;64.10;;;22.00;;
61897;SDS011;47850;50.274;18.908;2022-12-18T10:20:02;50.70;;;18.50;;
61897;SDS011;47850;50.274;18.908;2022-12-18T10:27:46;113.40;;;41.20;;
61897;SDS011;47850;50.274;18.908;2022-12-18T10:30:13;105.00;;;41.70;;
61897;SDS011;47850;50.274;18.908;2022-12-18T10:32:41;88.10;;;33.40;;
61897;SDS011;47850;50.274;18.908;2022-12-18T10:35:08;149.60;;;60.30;;
61897;SDS011;47850;50.274;18.908;2022-12-18T10:40:26;95.10;;;36.10;;
61897;SDS011;47850;50.274;18.908;2022-12-18T10:43:05;95.80;;;37.20;;
61897;SDS011;47850;50.274;18.908;2022-12-18T10:45:37;91.60;;;36.40;;
61897;SDS011;47850;50.274;18.908;2022-12-18T10:48:03;68.10;;;26.20;;
61897;SDS011;47850;50.274;18.908;2022-12-18T10:50:31;61.10;;;24.20;;
61897;SDS011;47850;50.274;18.908;2022-12-18T10:52:59;62.30;;;22.30;;
61897;SDS011;47850;50.274;18.908;2022-12-18T10:55:32;58.30;;;22.10;;
61897;SDS011;47850;50.274;18.908;2022-12-18T10:58:16;51.10;;;18.40;;
61897;SDS011;47850;50.274;18.908;2022-12-18T11:01:14;49.00;;;18.40;;
61897;SDS011;47850;50.274;18.908;2022-12-18T11:06:12;79.30;;;34.00;;
61897;SDS011;47850;50.274;18.908;2022-12-18T11:08:40;65.10;;;29.40;;
61897;SDS011;47850;50.274;18.908;2022-12-18T11:11:15;124.20;;;45.50;;
61897;SDS011;47850;50.274;18.908;2022-12-18T11:13:51;75.50;;;29.00;;
61897;SDS011;47850;50.274;18.908;2022-12-18T11:16:21;97.00;;;39.40;;
61897;SDS011;47850;50.274;18.908;2022-12-18T11:18:47;162.90;;;67.00;;
61897;SDS011;47850;50.274;18.908;2022-12-18T11:21:12;104.20;;;45.00;;
61897;SDS011;47850;50.274;18.908;2022-12-18T11:24:12;116.90;;;53.00;;
61897;SDS011;47850;50.274;18.908;2022-12-18T11:26:44;88.40;;;38.60;;
61897;SDS011;47850;50.274;18.908;2022-12-18T11:29:10;92.10;;;42.40;;
61897;SDS011;47850;50.274;18.908;2022-12-18T11:31:42;85.90;;;35.90;;
61897;SDS011;47850;50.274;18.908;2022-12-18T11:34:28;64.30;;;28.00;;
61897;SDS011;47850;50.274;18.908;2022-12-18T11:36:57;88.70;;;37.10;;
61897;SDS011;47850;50.274;18.908;2022-12-18T11:42:28;128.70;;;55.40;;
61897;SDS011;47850;50.274;18.908;2022-12-18T11:47:47;100.70;;;42.90;;
61897;SDS011;47850;50.274;18.908;2022-12-18T11:50:16;89.90;;;37.30;;
61897;SDS011;47850;50.274;18.908;2022-12-18T11:52:44;255.60;;;104.00;;
61897;SDS011;47850;50.274;18.908;2022-12-18T11:55:14;185.60;;;72.90;;
61897;SDS011;47850;50.274;18.908;2022-12-18T11:58:17;148.40;;;50.60;;
61897;SDS011;47850;50.274;18.908;2022-12-18T12:00:36;226.70;;;76.70;;
61897;SDS011;47850;50.274;18.908;2022-12-18T12:08:46;75.20;;;32.50;;
61897;SDS011;47850;50.274;18.908;2022-12-18T12:13:52;60.60;;;27.40;;
61897;SDS011;47850;50.274;18.908;2022-12-18T12:19:38;74.40;;;32.60;;
61897;SDS011;47850;50.274;18.908;2022-12-18T12:32:49;238.90;;;111.60;;
61897;SDS011;47850;50.274;18.908;2022-12-18T12:41:26;66.50;;;30.00;;
61897;SDS011;47850;50.274;18.908;2022-12-18T12:44:17;49.80;;;23.00;;
61897;SDS011;47850;50.274;18.908;2022-12-18T12:46:49;74.00;;;34.30;;
61897;SDS011;47850;50.274;18.908;2022-12-18T12:49:20;91.30;;;46.30;;
61897;SDS011;47850;50.274;18.908;2022-12-18T12:51:53;81.20;;;40.60;;
61897;SDS011;47850;50.274;18.908;2022-12-18T12:54:25;101.40;;;43.70;;
61897;SDS011;47850;50.274;18.908;2022-12-18T13:00:00;89.60;;;43.10;;
61897;SDS011;47850;50.274;18.908;2022-12-18T13:07:32;104.80;;;48.10;;
61897;SDS011;47850;50.274;18.908;2022-12-18T13:12:56;57.20;;;27.40;;
61897;SDS011;47850;50.274;18.908;2022-12-18T13:18:31;78.30;;;38.90;;
61897;SDS011;47850;50.274;18.908;2022-12-18T13:25:48;298.40;;;115.10;;
61897;SDS011;47850;50.274;18.908;2022-12-18T13:29:04;322.20;;;117.40;;
61897;SDS011;47850;50.274;18.908;2022-12-18T13:36:40;238.10;;;103.50;;
61897;SDS011;47850;50.274;18.908;2022-12-18T13:41:47;126.60;;;50.20;;
61897;SDS011;47850;50.274;18.908;2022-12-18T13:47:01;409.30;;;152.60;;
61897;SDS011;47850;50.274;18.908;2022-12-18T13:52:00;198.00;;;84.90;;
61897;SDS011;47850;50.274;18.908;2022-12-18T13:54:36;248.80;;;93.70;;
61897;SDS011;47850;50.274;18.908;2022-12-18T13:57:05;101.80;;;42.30;;
61897;SDS011;47850;50.274;18.908;2022-12-18T13:59:50;81.60;;;36.50;;
61897;SDS011;47850;50.274;18.908;2022-12-18T14:02:17;109.90;;;48.20;;
61897;SDS011;47850;50.274;18.908;2022-12-18T14:04:46;147.80;;;63.80;;
61897;SDS011;47850;50.274;18.908;2022-12-18T14:07:14;141.80;;;61.50;;
61897;SDS011;47850;50.274;18.908;2022-12-18T14:09:42;110.00;;;48.20;;
61897;SDS011;47850;50.274;18.908;2022-12-18T14:12:14;70.80;;;32.90;;
61897;SDS011;47850;50.274;18.908;2022-12-18T14:15:00;69.00;;;30.20;;
61897;SDS011;47850;50.274;18.908;2022-12-18T14:17:26;74.60;;;29.60;;
61897;SDS011;47850;50.274;18.908;2022-12-18T14:19:52;61.70;;;25.90;;
61897;SDS011;47850;50.274;18.908;2022-12-18T14:22:21;74.00;;;31.50;;
61897;SDS011;47850;50.274;18.908;2022-12-18T14:27:49;134.90;;;47.90;;
61897;SDS011;47850;50.274;18.908;2022-12-18T14:30:24;140.10;;;47.80;;
61897;SDS011;47850;50.274;18.908;2022-12-18T14:33:04;127.90;;;44.20;;
61897;SDS011;47850;50.274;18.908;2022-12-18T14:35:33;134.20;;;48.40;;
61897;SDS011;47850;50.274;18.908;2022-12-18T14:40:37;182.00;;;56.60;;
61897;SDS011;47850;50.274;18.908;2022-12-18T14:43:02;291.10;;;78.70;;
61897;SDS011;47850;50.274;18.908;2022-12-18T14:48:06;361.60;;;97.30;;
61897;SDS011;47850;50.274;18.908;2022-12-18T14:50:33;322.10;;;88.30;;
61897;SDS011;47850;50.274;18.908;2022-12-18T14:52:59;150.10;;;41.90;;
61897;SDS011;47850;50.274;18.908;2022-12-18T14:55:24;136.80;;;47.00;;
61897;SDS011;47850;50.274;18.908;2022-12-18T14:57:51;234.00;;;70.70;;
61897;SDS011;47850;50.274;18.908;2022-12-18T15:00:21;244.40;;;81.20;;
61897;SDS011;47850;50.274;18.908;2022-12-18T15:02:55;144.60;;;47.30;;
61897;SDS011;47850;50.274;18.908;2022-12-18T15:07:53;98.10;;;32.40;;
61897;SDS011;47850;50.274;18.908;2022-12-18T15:10:22;97.40;;;32.70;;
61897;SDS011;47850;50.274;18.908;2022-12-18T15:17:59;185.10;;;60.80;;
61897;SDS011;47850;50.274;18.908;2022-12-18T15:20:25;153.70;;;50.70;;
61897;SDS011;47850;50.274;18.908;2022-12-18T15:22:51;157.00;;;49.40;;
61897;SDS011;47850;50.274;18.908;2022-12-18T15:25:35;155.70;;;52.60;;
61897;SDS011;47850;50.274;18.908;2022-12-18T15:28:03;161.60;;;46.80;;
61897;SDS011;47850;50.274;18.908;2022-12-18T15:30:29;177.90;;;50.00;;
61897;SDS011;47850;50.274;18.908;2022-12-18T15:35:45;178.40;;;52.40;;
61897;SDS011;47850;50.274;18.908;2022-12-18T15:38:11;133.50;;;42.60;;
61897;SDS011;47850;50.274;18.908;2022-12-18T15:40:36;167.00;;;49.40;;
61897;SDS011;47850;50.274;18.908;2022-12-18T15:43:05;122.80;;;38.00;;
61897;SDS011;47850;50.274;18.908;2022-12-18T15:45:54;153.80;;;45.50;;
61897;SDS011;47850;50.274;18.908;2022-12-18T15:48:21;110.10;;;37.70;;
61897;SDS011;47850;50.274;18.908;2022-12-18T15:50:48;96.60;;;31.40;;
61897;SDS011;47850;50.274;18.908;2022-12-18T15:53:18;106.50;;;36.20;;
61897;SDS011;47850;50.274;18.908;2022-12-18T15:55:44;109.90;;;37.80;;
61897;SDS011;47850;50.274;18.908;2022-12-18T15:58:28;170.30;;;51.50;;
61897;SDS011;47850;50.274;18.908;2022-12-18T16:00:54;186.80;;;61.40;;
61897;SDS011;47850;50.274;18.908;2022-12-18T16:03:23;180.00;;;56.80;;
61897;SDS011;47850;50.274;18.908;2022-12-18T16:05:48;208.10;;;76.20;;
61897;SDS011;47850;50.274;18.908;2022-12-18T16:08:14;207.80;;;72.30;;
61897;SDS011;47850;50.274;18.908;2022-12-18T16:10:40;154.40;;;49.40;;
61897;SDS011;47850;50.274;18.908;2022-12-18T16:13:06;180.80;;;54.00;;
61897;SDS011;47850;50.274;18.908;2022-12-18T16:15:35;178.60;;;50.30;;
61897;SDS011;47850;50.274;18.908;2022-12-18T16:18:00;184.90;;;54.50;;
61897;SDS011;47850;50.274;18.908;2022-12-18T16:20:26;213.10;;;58.20;;
61897;SDS011;47850;50.274;18.908;2022-12-18T16:22:51;212.70;;;59.30;;
61897;SDS011;47850;50.274;18.908;2022-12-18T16:25:19;224.70;;;62.10;;
61897;SDS011;47850;50.274;18.908;2022-12-18T16:27:47;215.20;;;59.80;;
61897;SDS011;47850;50.274;18.908;2022-12-18T16:30:23;224.90;;;66.60;;
61897;SDS011;47850;50.274;18.908;2022-12-18T16:32:52;188.60;;;57.10;;
61897;SDS011;47850;50.274;18.908;2022-12-18T16:35:18;202.50;;;58.50;;
61897;SDS011;47850;50.274;18.908;2022-12-18T16:37:44;195.10;;;63.10;;
61897;SDS011;47850;50.274;18.908;2022-12-18T16:40:11;150.60;;;51.20;;
61897;SDS011;47850;50.274;18.908;2022-12-18T16:42:39;159.90;;;56.00;;